createdAt,value
2022-07-31T00:00:25.721Z,5.50
2022-07-31T00:02:53.019Z,5.55
2022-07-31T00:05:20.400Z,6.90
2022-07-31T00:07:47.739Z,7.03
2022-07-31T00:10:15.449Z,6.43
2022-07-31T00:12:43.267Z,6.93
2022-07-31T00:15:11.250Z,6.93
2022-07-31T00:17:39.693Z,6.90
2022-07-31T00:20:07.719Z,6.85
2022-07-31T00:22:38.825Z,6.65
2022-07-31T00:25:06.837Z,7.28
2022-07-31T00:27:34.223Z,6.68
2022-07-31T00:30:05.404Z,6.50
2022-07-31T00:32:32.645Z,7.05
2022-07-31T00:34:59.932Z,7.40
2022-07-31T00:37:27.399Z,7.00
2022-07-31T00:39:54.526Z,7.10
2022-07-31T00:42:24.047Z,7.57
2022-07-31T00:44:52.912Z,7.63
2022-07-31T00:47:23.856Z,7.13
2022-07-31T00:49:53.140Z,7.30
2022-07-31T00:52:21.073Z,7.50
2022-07-31T00:54:48.796Z,6.70
2022-07-31T00:57:16.103Z,6.97
2022-07-31T00:59:43.906Z,7.30
2022-07-31T01:02:11.586Z,7.55
2022-07-31T01:04:40.251Z,7.85
2022-07-31T01:07:09.153Z,7.85
2022-07-31T01:09:36.383Z,7.38
2022-07-31T01:12:16.641Z,7.15
2022-07-31T01:14:52.647Z,7.60
2022-07-31T01:17:22.559Z,7.30
2022-07-31T01:19:52.074Z,7.63
2022-07-31T01:22:45.788Z,7.28
2022-07-31T01:25:40.467Z,7.18
2022-07-31T01:28:24.450Z,7.28
2022-07-31T01:31:25.399Z,7.20
2022-07-31T01:33:59.750Z,7.53
2022-07-31T01:36:34.936Z,6.85
2022-07-31T01:39:04.416Z,7.20
2022-07-31T01:41:38.410Z,7.07
2022-07-31T01:44:08.031Z,7.22
2022-07-31T01:46:43.830Z,7.72
2022-07-31T01:49:13.555Z,6.70
2022-07-31T01:51:44.302Z,6.68
2022-07-31T01:54:13.218Z,6.72
2022-07-31T01:56:41.354Z,8.27
2022-07-31T01:59:12.413Z,7.22
2022-07-31T02:02:06.923Z,7.28
2022-07-31T02:04:38.247Z,7.35
2022-07-31T02:07:08.615Z,7.25
2022-07-31T02:09:37.749Z,8.10
2022-07-31T02:12:33.020Z,7.95
2022-07-31T02:15:06.515Z,7.53
2022-07-31T02:17:36.020Z,8.32
2022-07-31T02:20:40.350Z,7.38
2022-07-31T02:23:09.883Z,7.82
2022-07-31T02:25:37.560Z,8.18
2022-07-31T02:28:10.401Z,7.00
2022-07-31T02:30:41.506Z,7.65
2022-07-31T02:33:18.153Z,8.18
2022-07-31T02:35:49.388Z,7.25
2022-07-31T02:38:23.901Z,8.77
2022-07-31T02:40:59.836Z,7.25
2022-07-31T02:43:31.066Z,7.68
2022-07-31T02:46:02.188Z,7.90
2022-07-31T02:48:30.155Z,7.95
2022-07-31T02:51:02.769Z,8.63
2022-07-31T02:53:31.255Z,8.63
2022-07-31T02:56:04.545Z,9.05
2022-07-31T02:58:38.411Z,8.23
2022-07-31T03:01:06.753Z,7.93
2022-07-31T03:03:35.578Z,8.43
2022-07-31T03:06:02.863Z,8.27
2022-07-31T03:08:31.129Z,8.73
2022-07-31T03:11:03.666Z,8.07
2022-07-31T03:13:33.682Z,9.23
2022-07-31T03:16:02.281Z,9.65
2022-07-31T03:18:31.414Z,9.40
2022-07-31T03:20:58.749Z,9.25
2022-07-31T03:23:28.374Z,8.85
2022-07-31T03:26:05.698Z,10.20
2022-07-31T03:28:35.629Z,10.15
2022-07-31T03:31:03.055Z,9.63
2022-07-31T03:33:31.648Z,10.63
2022-07-31T03:35:59.067Z,10.60
2022-07-31T03:38:41.564Z,11.40
2022-07-31T03:41:15.457Z,10.50
2022-07-31T03:43:47.841Z,11.93
2022-07-31T03:46:22.112Z,11.00
2022-07-31T03:48:52.784Z,11.88
2022-07-31T03:51:21.415Z,11.73
2022-07-31T03:53:49.367Z,11.73
2022-07-31T03:59:03.758Z,12.00
2022-07-31T04:01:57.759Z,12.50
2022-07-31T04:04:26.877Z,11.70
2022-07-31T04:06:58.948Z,12.55
2022-07-31T04:09:26.957Z,13.98
2022-07-31T04:11:53.946Z,11.80
2022-07-31T04:14:23.646Z,12.25
2022-07-31T04:16:50.604Z,12.77
2022-07-31T04:19:17.743Z,12.52
2022-07-31T04:21:44.575Z,12.55
2022-07-31T04:24:13.763Z,12.73
2022-07-31T04:27:01.055Z,12.48
2022-07-31T04:29:36.676Z,12.65
2022-07-31T04:32:05.101Z,11.73
2022-07-31T04:34:37.595Z,12.65
2022-07-31T04:37:05.063Z,12.70
2022-07-31T04:39:31.994Z,13.63
2022-07-31T04:41:59.550Z,12.95
2022-07-31T04:44:26.483Z,13.10
2022-07-31T04:47:05.280Z,13.13
2022-07-31T04:49:35.101Z,12.82
2022-07-31T04:52:04.812Z,13.40
2022-07-31T04:54:32.427Z,13.60
2022-07-31T04:57:00.154Z,12.95
2022-07-31T04:59:57.703Z,13.35
2022-07-31T05:02:14.897Z,13.13
2022-07-31T05:04:43.134Z,14.05
2022-07-31T05:07:13.387Z,13.77
2022-07-31T05:09:40.341Z,12.80
2022-07-31T05:12:08.300Z,12.95
2022-07-31T05:14:35.388Z,13.02
2022-07-31T05:17:02.307Z,13.65
2022-07-31T05:19:45.745Z,13.75
2022-07-31T05:22:31.295Z,12.38
2022-07-31T05:25:30.218Z,13.82
2022-07-31T05:27:57.335Z,13.02
2022-07-31T05:30:30.003Z,12.90
2022-07-31T05:32:58.628Z,14.35
2022-07-31T05:35:25.816Z,13.65
2022-07-31T05:37:53.057Z,13.10
2022-07-31T05:40:28.551Z,12.85
2022-07-31T05:43:15.457Z,14.00
2022-07-31T05:46:05.649Z,12.88
2022-07-31T05:48:33.147Z,13.13
2022-07-31T05:51:05.074Z,13.02
2022-07-31T05:53:32.684Z,13.07
2022-07-31T05:56:18.198Z,13.77
2022-07-31T05:58:49.530Z,13.95
2022-07-31T06:01:16.723Z,13.60
2022-07-31T06:03:52.504Z,13.30
2022-07-31T06:06:27.966Z,13.68
2022-07-31T06:08:58.441Z,13.02
2022-07-31T06:11:29.104Z,12.75
2022-07-31T06:13:56.194Z,13.73
2022-07-31T06:16:30.964Z,12.65
2022-07-31T06:18:57.862Z,13.35
2022-07-31T06:21:30.421Z,13.88
2022-07-31T06:23:57.764Z,12.50
2022-07-31T06:26:34.856Z,12.93
2022-07-31T06:29:02.483Z,12.25
2022-07-31T06:31:29.428Z,12.15
2022-07-31T06:33:58.300Z,11.85
2022-07-31T06:36:32.535Z,11.80
2022-07-31T06:39:01.474Z,11.57
2022-07-31T06:41:47.615Z,11.07
2022-07-31T06:44:31.388Z,11.05
2022-07-31T06:47:18.583Z,10.95
2022-07-31T06:49:52.757Z,9.98
2022-07-31T06:52:20.004Z,10.20
2022-07-31T06:54:47.855Z,10.60
2022-07-31T06:57:14.975Z,10.73
2022-07-31T06:59:41.944Z,9.32
2022-07-31T07:02:09.418Z,10.70
2022-07-31T07:05:04.836Z,9.65
2022-07-31T07:07:24.823Z,10.70
2022-07-31T07:09:59.611Z,10.02
2022-07-31T07:13:01.761Z,10.30
2022-07-31T07:15:33.320Z,10.35
2022-07-31T07:18:00.314Z,10.95
2022-07-31T07:20:43.202Z,10.32
2022-07-31T07:23:10.230Z,10.20
2022-07-31T07:25:46.966Z,10.82
2022-07-31T07:28:29.216Z,10.00
2022-07-31T07:31:00.517Z,9.33
2022-07-31T07:33:41.418Z,9.15
2022-07-31T07:36:22.350Z,9.88
2022-07-31T07:38:56.216Z,9.57
2022-07-31T07:41:27.047Z,9.23
2022-07-31T07:43:54.366Z,9.55
2022-07-31T07:46:25.000Z,9.32
2022-07-31T07:48:56.212Z,8.07
2022-07-31T07:51:36.524Z,8.50
2022-07-31T07:54:23.415Z,8.82
2022-07-31T07:57:17.712Z,8.45
2022-07-31T08:00:07.147Z,8.15
2022-07-31T08:03:47.131Z,8.77
2022-07-31T08:05:44.733Z,7.85
2022-07-31T08:08:12.070Z,7.72
2022-07-31T08:10:48.598Z,8.77
2022-07-31T08:13:23.779Z,7.93
2022-07-31T08:16:17.371Z,8.23
2022-07-31T08:18:50.255Z,8.30
2022-07-31T08:21:17.561Z,7.35
2022-07-31T08:23:44.532Z,7.22
2022-07-31T08:26:13.940Z,6.53
2022-07-31T08:28:41.736Z,7.05
2022-07-31T08:31:21.687Z,6.60
2022-07-31T08:34:03.998Z,6.80
2022-07-31T08:36:32.079Z,5.88
2022-07-31T08:38:59.026Z,6.20
2022-07-31T08:42:06.374Z,5.90
2022-07-31T08:44:36.899Z,5.47
2022-07-31T08:47:08.866Z,5.68
2022-07-31T08:49:45.670Z,5.90
2022-07-31T08:52:18.524Z,5.30
2022-07-31T08:55:55.662Z,5.10
2022-07-31T08:58:04.939Z,5.25
2022-07-31T09:00:33.366Z,5.30
2022-07-31T09:03:00.871Z,5.25
2022-07-31T09:05:42.657Z,7.15
2022-07-31T09:08:15.042Z,8.05
2022-07-31T09:10:49.615Z,7.55
2022-07-31T09:13:18.653Z,7.15
2022-07-31T09:15:47.210Z,7.45
2022-07-31T09:18:22.073Z,7.47
2022-07-31T09:21:02.047Z,4.80
2022-07-31T09:23:30.282Z,6.15
2022-07-31T09:26:04.097Z,6.13
2022-07-31T09:28:35.701Z,5.88
2022-07-31T09:31:04.499Z,7.38
2022-07-31T09:33:49.845Z,9.88
2022-07-31T09:36:35.675Z,15.05
2022-07-31T09:39:28.995Z,14.93
2022-07-31T09:42:45.967Z,13.45
2022-07-31T09:45:22.083Z,12.82
2022-07-31T09:48:06.579Z,13.10
2022-07-31T09:50:34.204Z,12.77
2022-07-31T09:53:01.755Z,9.60
2022-07-31T09:55:31.417Z,9.10
2022-07-31T09:58:00.603Z,10.07
2022-07-31T10:00:34.148Z,8.75
2022-07-31T10:03:02.767Z,9.45
2022-07-31T10:05:31.499Z,10.93
2022-07-31T10:08:02.314Z,11.00
2022-07-31T10:10:47.654Z,11.50
2022-07-31T10:13:26.687Z,12.35
2022-07-31T10:15:59.060Z,13.60
2022-07-31T10:18:53.164Z,11.93
2022-07-31T10:21:39.961Z,11.45
2022-07-31T10:24:12.276Z,10.43
2022-07-31T10:26:59.885Z,8.93
2022-07-31T10:29:28.019Z,10.00
2022-07-31T10:32:01.981Z,11.75
2022-07-31T10:34:29.852Z,12.13
2022-07-31T10:37:24.643Z,9.60
2022-07-31T10:40:23.740Z,9.70
2022-07-31T10:43:19.177Z,8.63
2022-07-31T10:46:02.938Z,8.55
2022-07-31T10:48:53.381Z,8.82
2022-07-31T10:51:50.411Z,9.27
2022-07-31T10:54:46.293Z,8.07
2022-07-31T10:57:56.274Z,7.47
2022-07-31T11:00:36.247Z,6.10
2022-07-31T11:03:59.878Z,5.50
2022-07-31T11:06:53.110Z,5.18
2022-07-31T11:09:50.440Z,4.45
2022-07-31T11:12:58.782Z,5.15
2022-07-31T11:15:46.387Z,4.20
2022-07-31T11:18:34.343Z,3.80
2022-07-31T11:21:22.770Z,3.63
2022-07-31T11:23:57.671Z,3.75
2022-07-31T11:26:33.157Z,3.45
2022-07-31T11:30:01.390Z,3.60
2022-07-31T11:32:06.072Z,3.67
2022-07-31T11:34:44.706Z,3.47
2022-07-31T11:37:46.299Z,3.50
2022-07-31T11:40:22.127Z,3.95
2022-07-31T11:43:04.634Z,3.55
2022-07-31T11:45:49.658Z,3.63
2022-07-31T11:48:19.414Z,4.82
2022-07-31T11:50:48.305Z,4.80
2022-07-31T11:53:16.673Z,5.38
2022-07-31T11:55:47.526Z,3.90
2022-07-31T11:58:15.925Z,3.13
2022-07-31T12:01:12.171Z,4.35
2022-07-31T12:03:39.916Z,3.95
2022-07-31T12:06:08.782Z,3.95
2022-07-31T12:08:37.783Z,4.38
2022-07-31T12:11:08.148Z,4.68
2022-07-31T12:13:35.355Z,4.05
2022-07-31T12:16:11.207Z,3.60
2022-07-31T12:18:51.430Z,3.67
2022-07-31T12:21:19.738Z,2.90
2022-07-31T12:23:50.638Z,3.10
2022-07-31T12:26:32.563Z,3.08
2022-07-31T12:29:08.858Z,3.78
2022-07-31T12:31:50.834Z,3.85
2022-07-31T12:34:27.690Z,4.10
2022-07-31T12:37:15.069Z,3.40
2022-07-31T12:39:59.289Z,3.45
2022-07-31T12:42:37.575Z,3.38
2022-07-31T12:45:20.015Z,3.30
2022-07-31T12:47:51.333Z,3.10
2022-07-31T12:50:20.635Z,3.60
2022-07-31T12:52:48.210Z,3.42
2022-07-31T12:55:17.131Z,3.97
2022-07-31T12:57:50.390Z,3.88
2022-07-31T13:00:23.993Z,4.07
2022-07-31T13:02:56.678Z,3.80
2022-07-31T13:05:25.073Z,3.28
2022-07-31T13:07:52.731Z,4.22
2022-07-31T13:10:24.161Z,3.75
2022-07-31T13:12:52.891Z,3.63
2022-07-31T13:15:29.341Z,4.30
2022-07-31T13:18:02.072Z,3.53
2022-07-31T13:20:31.110Z,3.33
2022-07-31T13:22:59.788Z,3.42
2022-07-31T13:25:30.554Z,3.35
2022-07-31T13:27:58.622Z,3.63
2022-07-31T13:30:25.895Z,3.50
2022-07-31T13:32:53.002Z,4.25
2022-07-31T13:35:28.000Z,4.47
2022-07-31T13:37:56.286Z,4.63
2022-07-31T13:40:42.593Z,5.03
2022-07-31T13:43:09.726Z,4.80
2022-07-31T13:45:37.523Z,4.28
2022-07-31T13:48:09.001Z,4.57
2022-07-31T13:50:41.432Z,4.85
2022-07-31T13:53:09.372Z,5.30
2022-07-31T13:55:36.814Z,5.03
2022-07-31T13:58:04.542Z,5.00
2022-07-31T14:00:32.211Z,4.80
2022-07-31T14:02:59.249Z,4.40
2022-07-31T14:05:27.810Z,5.90
2022-07-31T14:07:56.120Z,4.97
2022-07-31T14:10:23.610Z,5.60
2022-07-31T14:12:51.224Z,5.78
2022-07-31T14:15:18.638Z,5.68
2022-07-31T14:17:45.936Z,5.45
2022-07-31T14:20:13.568Z,5.90
2022-07-31T14:22:41.349Z,5.78
2022-07-31T14:25:09.754Z,5.93
2022-07-31T14:27:38.724Z,5.15
2022-07-31T14:30:10.486Z,6.30
2022-07-31T14:32:37.804Z,5.88
2022-07-31T14:35:08.639Z,5.88
2022-07-31T14:37:36.539Z,6.03
2022-07-31T14:40:04.988Z,7.00
2022-07-31T14:42:32.683Z,6.20
2022-07-31T14:45:00.014Z,5.85
2022-07-31T14:47:27.187Z,5.80
2022-07-31T14:50:08.977Z,6.45
2022-07-31T14:52:38.050Z,6.72
2022-07-31T14:55:05.904Z,7.53
2022-07-31T14:57:33.102Z,7.68
2022-07-31T15:00:00.252Z,6.70
2022-07-31T15:02:27.585Z,6.43
2022-07-31T15:04:54.798Z,6.53
2022-07-31T15:07:43.965Z,7.40
2022-07-31T15:10:11.250Z,6.35
2022-07-31T15:12:38.934Z,6.57
2022-07-31T15:15:07.952Z,7.07
2022-07-31T15:17:35.337Z,6.40
2022-07-31T15:20:02.710Z,6.47
2022-07-31T15:22:30.270Z,6.32
2022-07-31T15:24:57.478Z,6.68
2022-07-31T15:27:25.058Z,6.28
2022-07-31T15:30:06.067Z,6.30
2022-07-31T15:32:39.245Z,6.40
2022-07-31T15:35:08.956Z,5.88
2022-07-31T15:37:38.006Z,6.25
2022-07-31T15:40:07.475Z,6.22
2022-07-31T15:42:40.638Z,6.80
2022-07-31T15:45:10.528Z,6.85
2022-07-31T15:47:39.203Z,6.95
2022-07-31T15:50:08.344Z,5.30
2022-07-31T15:52:35.787Z,6.00
2022-07-31T15:55:03.775Z,5.70
2022-07-31T15:57:30.959Z,5.00
2022-07-31T15:59:58.419Z,6.07
2022-07-31T16:02:27.113Z,5.03
2022-07-31T16:04:58.570Z,5.72
2022-07-31T16:08:31.201Z,5.50
2022-07-31T16:10:18.104Z,5.93
2022-07-31T16:12:49.165Z,5.47
2022-07-31T16:15:17.330Z,5.78
2022-07-31T16:17:45.365Z,5.40
2022-07-31T16:20:26.003Z,5.78
2022-07-31T16:23:02.677Z,6.57
2022-07-31T16:25:35.011Z,6.80
2022-07-31T16:28:06.113Z,5.78
2022-07-31T16:30:33.369Z,6.43
2022-07-31T16:33:00.391Z,6.07
2022-07-31T16:35:27.816Z,6.75
2022-07-31T16:37:55.794Z,6.22
2022-07-31T16:40:28.143Z,5.90
2022-07-31T16:45:50.633Z,6.35
2022-07-31T16:48:18.227Z,5.68
2022-07-31T16:50:48.129Z,6.13
2022-07-31T16:54:10.936Z,6.47
2022-07-31T16:56:07.260Z,6.07
2022-07-31T16:58:35.174Z,6.95
2022-07-31T17:01:04.271Z,6.15
2022-07-31T17:04:01.035Z,7.05
2022-07-31T17:06:18.874Z,6.35
2022-07-31T17:09:17.109Z,6.78
2022-07-31T17:11:48.423Z,6.07
2022-07-31T17:14:17.321Z,6.90
2022-07-31T17:16:47.674Z,6.40
2022-07-31T17:19:16.778Z,6.80
2022-07-31T17:22:04.978Z,6.50
2022-07-31T17:24:32.159Z,7.00
2022-07-31T17:26:59.884Z,6.75
2022-07-31T17:29:27.071Z,7.20
2022-07-31T17:31:54.238Z,7.20
2022-07-31T17:34:21.387Z,6.40
2022-07-31T17:36:50.273Z,6.97
2022-07-31T17:39:17.731Z,7.50
2022-07-31T17:41:44.813Z,6.93
2022-07-31T17:44:11.925Z,6.68
2022-07-31T17:46:48.330Z,6.95
2022-07-31T17:49:19.637Z,6.75
2022-07-31T17:51:57.594Z,7.30
2022-07-31T17:54:28.497Z,6.80
2022-07-31T17:56:56.084Z,7.45
2022-07-31T17:59:23.422Z,7.18
2022-07-31T18:01:52.261Z,7.18
2022-07-31T18:04:21.322Z,8.02
2022-07-31T18:06:54.552Z,8.02
2022-07-31T18:09:23.435Z,8.10
2022-07-31T18:11:52.232Z,8.25
2022-07-31T18:14:19.455Z,8.18
2022-07-31T18:16:47.846Z,7.15
2022-07-31T18:19:15.385Z,7.45
2022-07-31T18:21:42.473Z,8.57
2022-07-31T18:24:09.468Z,7.88
2022-07-31T18:26:37.311Z,8.48
2022-07-31T18:29:05.086Z,8.10
2022-07-31T18:31:35.211Z,8.10
2022-07-31T18:34:03.688Z,7.80
2022-07-31T18:36:31.051Z,7.65
2022-07-31T18:38:57.997Z,7.80
2022-07-31T18:41:25.074Z,7.15
2022-07-31T18:43:51.927Z,6.90
2022-07-31T18:46:20.154Z,7.75
2022-07-31T18:48:50.666Z,7.97
2022-07-31T18:51:20.215Z,6.80
2022-07-31T18:53:47.076Z,7.13
2022-07-31T18:56:13.977Z,7.07
2022-07-31T18:58:42.603Z,7.00
2022-07-31T19:01:09.488Z,7.43
2022-07-31T19:03:36.359Z,7.07
2022-07-31T19:06:04.352Z,6.45
2022-07-31T19:08:31.315Z,7.43
2022-07-31T19:10:58.370Z,7.60
2022-07-31T19:13:25.588Z,7.20
2022-07-31T19:15:53.185Z,7.60
2022-07-31T19:18:28.012Z,6.60
2022-07-31T19:21:19.164Z,6.53
2022-07-31T19:23:46.881Z,7.07
2022-07-31T19:26:14.463Z,6.93
2022-07-31T19:28:43.311Z,6.85
2022-07-31T19:31:13.319Z,7.07
2022-07-31T19:33:41.104Z,6.65
2022-07-31T19:36:10.682Z,6.72
2022-07-31T19:38:37.957Z,6.45
2022-07-31T19:41:08.501Z,6.50
2022-07-31T19:43:35.902Z,6.25
2022-07-31T19:46:12.351Z,7.03
2022-07-31T19:48:44.653Z,6.60
2022-07-31T19:51:12.915Z,6.50
2022-07-31T19:53:40.613Z,6.95
2022-07-31T19:56:08.703Z,6.28
2022-07-31T19:58:37.453Z,6.72
2022-07-31T20:01:05.818Z,5.82
2022-07-31T20:03:33.674Z,6.80
2022-07-31T20:06:02.353Z,6.30
2022-07-31T20:08:33.053Z,6.22
2022-07-31T20:11:03.984Z,6.35
2022-07-31T20:13:33.001Z,6.53
2022-07-31T20:16:00.624Z,5.88
2022-07-31T20:18:28.988Z,6.03
2022-07-31T20:21:03.518Z,5.35
2022-07-31T20:23:31.604Z,5.47
2022-07-31T20:25:59.374Z,6.00
2022-07-31T20:28:27.315Z,5.88
2022-07-31T20:30:54.918Z,5.15
2022-07-31T20:33:22.408Z,5.32
2022-07-31T20:35:50.318Z,5.28
2022-07-31T20:38:24.280Z,5.45
2022-07-31T20:40:55.350Z,5.57
2022-07-31T20:43:28.735Z,5.95
2022-07-31T20:45:57.885Z,5.63
2022-07-31T20:48:31.658Z,5.80
2022-07-31T20:51:00.089Z,5.75
2022-07-31T20:53:27.648Z,6.22
2022-07-31T20:55:55.165Z,6.43
2022-07-31T20:58:23.534Z,5.95
2022-07-31T21:00:52.406Z,7.57
2022-07-31T21:03:19.753Z,7.18
2022-07-31T21:05:47.364Z,7.25
2022-07-31T21:08:14.600Z,7.03
2022-07-31T21:10:41.973Z,7.38
2022-07-31T21:13:09.382Z,6.45
2022-07-31T21:15:41.646Z,6.72
2022-07-31T21:18:17.440Z,7.63
2022-07-31T21:20:52.515Z,7.20
2022-07-31T21:23:27.791Z,8.40
2022-07-31T21:25:57.440Z,8.88
2022-07-31T21:28:26.625Z,9.27
2022-07-31T21:30:56.357Z,8.93
2022-07-31T21:33:27.719Z,9.75
2022-07-31T21:35:55.544Z,9.75
2022-07-31T21:38:23.432Z,10.73
2022-07-31T21:40:51.438Z,10.80
2022-07-31T21:43:22.738Z,11.55
2022-07-31T21:45:57.669Z,11.07
2022-07-31T21:48:30.744Z,11.25
2022-07-31T21:50:58.708Z,11.10
2022-07-31T21:53:25.663Z,11.27
2022-07-31T21:55:52.778Z,12.07
2022-07-31T21:58:20.061Z,10.90
2022-07-31T22:00:47.181Z,11.45
2022-07-31T22:03:14.288Z,10.68
2022-07-31T22:05:59.572Z,10.63
2022-07-31T22:08:26.608Z,9.48
2022-07-31T22:10:53.595Z,10.27
2022-07-31T22:13:20.799Z,10.25
2022-07-31T22:15:55.497Z,11.13
2022-07-31T22:18:29.980Z,10.52
2022-07-31T22:20:58.135Z,9.77
2022-07-31T22:23:27.466Z,10.57
2022-07-31T22:25:54.911Z,8.40
2022-07-31T22:28:23.191Z,4.05
2022-07-31T22:30:50.810Z,3.20
2022-07-31T22:33:18.589Z,3.80
2022-07-31T22:36:00.252Z,3.58
2022-07-31T22:38:29.480Z,2.70
2022-07-31T22:40:57.600Z,2.22
2022-07-31T22:44:13.389Z,2.53
2022-07-31T22:46:12.566Z,2.30
2022-07-31T22:48:40.656Z,1.85
2022-07-31T22:51:08.168Z,2.30
2022-07-31T22:53:35.261Z,2.40
2022-07-31T22:56:02.223Z,2.20
2022-07-31T22:58:29.155Z,2.90
2022-07-31T23:00:56.383Z,2.65
2022-07-31T23:03:23.220Z,2.20
2022-07-31T23:06:28.184Z,2.45
2022-07-31T23:08:37.243Z,1.92
2022-07-31T23:11:04.499Z,2.15
2022-07-31T23:13:31.441Z,2.38
2022-07-31T23:15:58.452Z,2.13
2022-07-31T23:18:26.682Z,2.15
2022-07-31T23:20:53.632Z,1.77
2022-07-31T23:23:20.556Z,1.83
2022-07-31T23:25:47.395Z,2.15
2022-07-31T23:28:14.270Z,1.50
2022-07-31T23:30:41.299Z,1.80
2022-07-31T23:33:08.216Z,1.52
2022-07-31T23:35:35.095Z,1.77
2022-07-31T23:38:02.019Z,1.80
2022-07-31T23:40:28.912Z,1.98
2022-07-31T23:42:55.803Z,1.40
2022-07-31T23:45:23.562Z,1.60
2022-07-31T23:47:52.070Z,1.60
2022-07-31T23:50:18.942Z,1.30
2022-07-31T23:52:46.147Z,1.65
2022-07-31T23:55:13.566Z,1.63
2022-07-31T23:57:41.321Z,1.25
